Time;durP1;ratioP1;P1;durP2;ratioP2;P2;SDS_P1;SDS_P2;PMS_P1;PMS_P2;Temp;Humidity;BMP_temperature;BMP_pressure;BME280_temperature;BME280_humidity;BME280_pressure;Samples;Min_cycle;Max_cycle;Signal;HPM_P1;HPM_P2
2022/05/12 00:01:48;;;;;;;3.22;2.28;;;;;19.90;94076.00;;;;7391440;19;20623;-82
2022/05/12 00:04:16;;;;;;;3.65;2.55;;;;;19.90;94071.00;;;;7393264;19;20599;-82
2022/05/12 00:06:50;;;;;;;3.60;2.30;;;;;19.80;94069.00;;;;7391783;19;20140;-83
2022/05/12 00:09:18;;;;;;;7.75;2.30;;;;;19.80;94079.00;;;;7391748;19;20136;-78
2022/05/12 00:11:46;;;;;;;4.75;2.60;;;;;19.80;94070.00;;;;7392441;19;20154;-83
2022/05/12 00:14:21;;;;;;;3.97;2.30;;;;;19.50;94075.00;;;;7390691;19;20129;-83
2022/05/12 00:16:48;;;;;;;6.22;2.38;;;;;19.50;94081.00;;;;7392831;19;20131;-84
2022/05/12 00:19:16;;;;;;;9.18;2.42;;;;;19.40;94080.00;;;;7391416;19;20620;-82
2022/05/12 00:21:49;;;;;;;8.82;2.97;;;;;19.20;94092.00;;;;7391298;19;20145;-81
2022/05/12 00:24:17;;;;;;;3.85;2.38;;;;;19.20;94092.00;;;;7392910;19;20189;-83
2022/05/12 00:26:45;;;;;;;5.40;2.45;;;;;19.20;94092.00;;;;7392727;19;20125;-84
2022/05/12 00:29:19;;;;;;;7.85;2.60;;;;;19.50;94093.00;;;;7392041;19;20136;-84
2022/05/12 00:31:48;;;;;;;3.97;2.28;;;;;19.30;94095.00;;;;7392160;19;20231;-81
2022/05/12 00:34:19;;;;;;;7.68;2.58;;;;;19.10;94100.00;;;;7389230;19;20162;-82
2022/05/12 00:36:52;;;;;;;4.55;2.33;;;;;19.30;94103.00;;;;7392223;19;20147;-85
2022/05/12 00:39:20;;;;;;;5.03;2.55;;;;;19.40;94099.00;;;;7390686;19;20720;-81
2022/05/12 00:41:47;;;;;;;4.68;2.60;;;;;19.20;94114.00;;;;7392240;19;20161;-83
2022/05/12 00:44:21;;;;;;;4.28;2.63;;;;;19.30;94096.00;;;;7383046;19;20125;-81
2022/05/12 00:46:50;;;;;;;2.88;2.47;;;;;19.20;94110.00;;;;7390679;19;20640;-83
2022/05/12 00:49:25;;;;;;;9.00;2.72;;;;;19.00;94106.00;;;;7391281;19;20125;-80
2022/05/12 00:52:11;;;;;;;4.63;2.60;;;;;18.90;94114.00;;;;7392984;19;20196;-82
2022/05/12 00:54:56;;;;;;;5.32;3.00;;;;;19.00;94108.00;;;;7388653;19;20141;-80
2022/05/12 00:57:38;;;;;;;2.75;2.33;;;;;18.60;94117.00;;;;7390733;19;20485;-81
2022/05/12 01:00:10;;;;;;;7.18;2.63;;;;;18.60;94117.00;;;;7390277;19;20154;-79
2022/05/12 01:02:54;;;;;;;7.40;2.80;;;;;18.70;94110.00;;;;7388869;19;20529;-75
2022/05/12 01:05:24;;;;;;;4.72;2.55;;;;;18.80;94118.00;;;;7389539;19;20139;-78
2022/05/12 01:07:59;;;;;;;7.13;2.80;;;;;18.80;94126.00;;;;7391030;19;20130;-78
2022/05/12 01:10:27;;;;;;;7.10;2.92;;;;;18.50;94112.00;;;;7390326;19;20121;-80
2022/05/12 01:12:55;;;;;;;3.80;2.67;;;;;18.50;94121.00;;;;7392389;19;20125;-79
2022/05/12 01:15:29;;;;;;;4.00;2.88;;;;;18.50;94116.00;;;;7391190;19;20140;-79
2022/05/12 01:18:10;;;;;;;5.05;2.72;;;;;18.50;94115.00;;;;7391227;19;20150;-81
2022/05/12 01:20:46;;;;;;;6.15;2.50;;;;;18.40;94127.00;;;;7390509;19;20136;-79
2022/05/12 01:23:20;;;;;;;6.20;2.90;;;;;18.20;94125.00;;;;7389826;19;20143;-76
2022/05/12 01:26:09;;;;;;;5.50;2.97;;;;;18.10;94134.00;;;;7390893;19;20141;-78
2022/05/12 01:28:37;;;;;;;9.63;2.70;;;;;18.20;94145.00;;;;7390474;19;20133;-76
2022/05/12 01:31:16;;;;;;;3.13;2.72;;;;;18.20;94156.00;;;;7391577;19;20153;-75
2022/05/12 01:33:44;;;;;;;2.75;2.45;;;;;18.00;94147.00;;;;7389263;19;20125;-77
2022/05/12 01:36:20;;;;;;;4.18;2.88;;;;;17.90;94164.00;;;;7397098;19;20136;-76
2022/05/12 01:38:48;;;;;;;6.88;3.38;;;;;17.90;94161.00;;;;7396816;19;20155;-77
2022/05/12 01:41:16;;;;;;;7.50;2.80;;;;;17.80;94163.00;;;;7397335;19;20144;-75
2022/05/12 01:43:51;;;;;;;7.78;3.00;;;;;17.80;94173.00;;;;7397380;19;20151;-74
2022/05/12 01:46:18;;;;;;;5.80;2.80;;;;;17.80;94179.00;;;;7396310;19;20157;-74
2022/05/12 01:48:46;;;;;;;6.10;3.13;;;;;17.70;94183.00;;;;7396355;19;20149;-74
2022/05/12 01:51:20;;;;;;;4.95;3.08;;;;;17.60;94180.00;;;;7396944;19;20137;-75
2022/05/12 01:53:48;;;;;;;3.20;2.90;;;;;17.60;94188.00;;;;7396621;19;20128;-73
2022/05/12 01:56:16;;;;;;;9.73;3.08;;;;;17.70;94188.00;;;;7395728;19;20141;-73
2022/05/12 01:58:49;;;;;;;3.85;2.60;;;;;17.80;94188.00;;;;7397065;19;20595;-74
2022/05/12 02:01:17;;;;;;;5.93;3.00;;;;;17.60;94183.00;;;;7397991;19;20192;-77
2022/05/12 02:03:51;;;;;;;3.40;2.35;;;;;17.70;94196.00;;;;7394540;19;20468;-76
2022/05/12 02:06:32;;;;;;;5.10;2.80;;;;;17.60;94199.00;;;;7406898;19;20136;-80
2022/05/12 02:09:00;;;;;;;4.35;2.60;;;;;17.60;94194.00;;;;7412437;19;20135;-80
2022/05/12 02:11:35;;;;;;;4.60;2.40;;;;;17.40;94195.00;;;;7400258;19;20152;-80
2022/05/12 02:14:04;;;;;;;5.05;2.33;;;;;17.50;94194.00;;;;7400773;19;20180;-81
2022/05/12 02:16:33;;;;;;;6.15;2.30;;;;;17.30;94201.00;;;;7405406;19;20591;-82
2022/05/12 02:19:11;;;;;;;5.55;2.42;;;;;17.30;94197.00;;;;7398189;19;20177;-80
2022/05/12 02:21:38;;;;;;;2.45;2.08;;;;;17.10;94191.00;;;;7399785;19;20133;-78
2022/05/12 02:24:06;;;;;;;6.25;2.72;;;;;17.20;94203.00;;;;7400407;19;20643;-80
2022/05/12 02:26:41;;;;;;;6.32;2.67;;;;;17.00;94199.00;;;;7397897;19;20192;-79
2022/05/12 02:29:08;;;;;;;5.95;2.15;;;;;16.90;94200.00;;;;7395889;19;20128;-79
2022/05/12 02:31:36;;;;;;;7.38;2.63;;;;;16.80;94208.00;;;;7396124;19;20596;-77
2022/05/12 02:34:10;;;;;;;4.40;2.28;;;;;16.80;94206.00;;;;7394075;19;20168;-76
2022/05/12 02:36:37;;;;;;;5.45;2.42;;;;;16.60;94212.00;;;;7394689;19;20141;-79
2022/05/12 02:39:05;;;;;;;5.28;2.40;;;;;16.50;94203.00;;;;7395857;19;20128;-78
2022/05/12 02:41:38;;;;;;;4.53;2.47;;;;;16.40;94206.00;;;;7395345;19;20157;-75
2022/05/12 02:44:06;;;;;;;3.10;2.47;;;;;16.30;94216.00;;;;7394791;19;20137;-79
2022/05/12 02:46:33;;;;;;;6.35;2.53;;;;;16.20;94212.00;;;;7394229;19;20148;-77
2022/05/12 02:49:09;;;;;;;4.32;2.40;;;;;16.40;94239.00;;;;7397029;19;20124;-78
2022/05/12 02:51:36;;;;;;;4.40;2.47;;;;;16.30;94225.00;;;;7394668;19;20140;-78
2022/05/12 02:54:04;;;;;;;3.55;2.10;;;;;16.30;94238.00;;;;7393487;19;20151;-78
2022/05/12 02:56:39;;;;;;;2.22;2.03;;;;;16.30;94234.00;;;;7394051;19;20591;-77
2022/05/12 02:59:07;;;;;;;7.13;2.45;;;;;16.30;94232.00;;;;7394977;19;20145;-75
2022/05/12 03:01:35;;;;;;;4.43;2.20;;;;;16.20;94232.00;;;;7393218;19;20141;-78
2022/05/12 03:04:26;;;;;;;4.78;2.22;;;;;16.30;94237.00;;;;7392837;19;20160;-79
2022/05/12 03:07:00;;;;;;;3.70;2.00;;;;;15.90;94239.00;;;;7395146;19;20640;-76
2022/05/12 03:09:34;;;;;;;5.90;2.25;;;;;15.90;94237.00;;;;7393917;19;20144;-78
2022/05/12 03:12:02;;;;;;;3.38;2.10;;;;;15.80;94245.00;;;;7394077;19;20133;-76
2022/05/12 03:14:30;;;;;;;3.88;1.98;;;;;15.90;94241.00;;;;7392739;19;20137;-80
2022/05/12 03:17:05;;;;;;;2.38;1.92;;;;;15.90;94240.00;;;;7394644;19;20215;-75
2022/05/12 03:19:34;;;;;;;5.93;1.70;;;;;15.90;94242.00;;;;7394281;19;20125;-79
2022/05/12 03:22:01;;;;;;;6.28;2.17;;;;;15.80;94240.00;;;;7400217;19;20121;-79
2022/05/12 03:24:35;;;;;;;5.00;2.30;;;;;15.50;94245.00;;;;7394157;19;20128;-78
2022/05/12 03:27:03;;;;;;;5.15;1.95;;;;;15.40;94239.00;;;;7393097;19;20157;-78
2022/05/12 03:29:31;;;;;;;3.03;2.05;;;;;15.20;94250.00;;;;7394090;19;20133;-78
2022/05/12 03:32:10;;;;;;;2.00;1.80;;;;;15.40;94243.00;;;;7394331;19;20173;-79
2022/05/12 03:34:39;;;;;;;2.33;2.10;;;;;15.30;94248.00;;;;7393240;19;20627;-77
2022/05/12 03:37:13;;;;;;;6.57;2.00;;;;;15.40;94245.00;;;;7398011;19;20128;-81
2022/05/12 03:39:43;;;;;;;4.20;2.33;;;;;15.20;94249.00;;;;7394217;19;20600;-76
2022/05/12 03:42:12;;;;;;;2.95;1.95;;;;;15.30;94240.00;;;;7401011;19;20250;-80
2022/05/12 03:44:59;;;;;;;3.08;2.03;;;;;15.10;94245.00;;;;7393706;19;20882;-76
2022/05/12 03:47:29;;;;;;;4.95;2.03;;;;;15.10;94235.00;;;;7392531;19;20192;-74
2022/05/12 03:50:08;;;;;;;5.32;1.88;;;;;15.30;94239.00;;;;7392060;19;20140;-78
2022/05/12 03:52:36;;;;;;;4.88;1.90;;;;;15.30;94250.00;;;;7391003;19;20204;-77
2022/05/12 03:55:12;;;;;;;3.50;1.90;;;;;15.20;94255.00;;;;7394329;19;20620;-79
2022/05/12 03:57:40;;;;;;;2.20;2.00;;;;;15.20;94260.00;;;;7390415;19;20129;-79
2022/05/12 04:00:12;;;;;;;4.53;2.03;;;;;15.20;94268.00;;;;7392955;19;20144;-77
2022/05/12 04:02:47;;;;;;;3.15;2.30;;;;;15.20;94262.00;;;;7392595;19;20168;-76
2022/05/12 04:05:21;;;;;;;4.40;2.10;;;;;15.10;94258.00;;;;7390136;19;20175;-76
2022/05/12 04:07:55;;;;;;;2.70;1.85;;;;;15.10;94269.00;;;;7393403;19;20138;-76
2022/05/12 04:10:24;;;;;;;4.57;2.28;;;;;15.00;94279.00;;;;7392987;19;20132;-77
2022/05/12 04:12:52;;;;;;;3.35;2.08;;;;;14.90;94282.00;;;;7394117;19;20457;-78
2022/05/12 04:15:25;;;;;;;4.50;1.90;;;;;15.00;94284.00;;;;7390743;19;20470;-79
2022/05/12 04:17:58;;;;;;;5.22;2.80;;;;;15.20;94284.00;;;;7392000;19;20691;-75
2022/05/12 04:20:34;;;;;;;3.40;2.15;;;;;15.10;94281.00;;;;7390997;19;20625;-77
2022/05/12 04:23:02;;;;;;;4.82;2.20;;;;;15.00;94291.00;;;;7393938;19;20124;-79
2022/05/12 04:25:29;;;;;;;3.35;2.53;;;;;14.90;94292.00;;;;7392062;19;20137;-75
2022/05/12 04:28:04;;;;;;;3.97;1.80;;;;;14.90;94292.00;;;;7391215;19;20132;-77
2022/05/12 04:30:32;;;;;;;4.30;2.20;;;;;14.90;94296.00;;;;7391422;19;20168;-76
2022/05/12 04:35:11;;;;;;;2.78;1.80;;;;;14.90;94302.00;;;;7392741;19;20172;-78
2022/05/12 04:35:54;;;;;;;4.03;2.15;;;;;14.90;94299.00;;;;7392814;19;20140;-79
2022/05/12 04:38:21;;;;;;;5.50;1.90;;;;;14.90;94308.00;;;;7392791;19;20129;-77
2022/05/12 04:40:51;;;;;;;3.53;2.50;;;;;14.90;94307.00;;;;7391061;19;20172;-73
2022/05/12 04:43:27;;;;;;;3.58;2.53;;;;;14.90;94306.00;;;;7391107;19;20120;-74
2022/05/12 04:45:54;;;;;;;5.43;2.50;;;;;15.10;94311.00;;;;7392128;19;20220;-75
2022/05/12 04:48:25;;;;;;;3.75;2.25;;;;;14.90;94306.00;;;;7390880;19;20141;-75
2022/05/12 04:51:00;;;;;;;4.70;2.20;;;;;14.90;94317.00;;;;7391319;19;20160;-76
2022/05/12 04:53:28;;;;;;;3.10;2.08;;;;;14.90;94314.00;;;;7390844;19;20196;-75
2022/05/12 04:55:55;;;;;;;4.32;2.17;;;;;14.80;94313.00;;;;7388679;19;20179;-76
2022/05/12 04:58:30;;;;;;;7.88;2.20;;;;;14.90;94306.00;;;;7390726;19;20124;-73
2022/05/12 05:00:57;;;;;;;2.78;2.10;;;;;14.80;94309.00;;;;7391272;19;20905;-77
2022/05/12 05:03:25;;;;;;;3.28;2.53;;;;;14.80;94318.00;;;;7390815;19;20599;-74
2022/05/12 05:06:06;;;;;;;2.47;2.28;;;;;14.90;94324.00;;;;7390057;19;20137;-77
2022/05/12 05:08:34;;;;;;;4.78;2.35;;;;;15.10;94321.00;;;;7392067;19;20125;-78
2022/05/12 05:11:09;;;;;;;4.30;2.55;;;;;15.10;94329.00;;;;7397501;19;20490;-76
2022/05/12 05:13:36;;;;;;;5.75;2.47;;;;;15.00;94331.00;;;;7398404;19;20212;-77
2022/05/12 05:16:04;;;;;;;6.45;2.05;;;;;15.10;94342.00;;;;7394904;19;20132;-75
2022/05/12 05:18:39;;;;;;;2.80;2.28;;;;;15.10;94346.00;;;;7393752;19;20128;-75
2022/05/12 05:21:08;;;;;;;5.00;2.55;;;;;15.10;94346.00;;;;7397455;19;20145;-77
2022/05/12 05:23:35;;;;;;;3.08;2.42;;;;;15.00;94347.00;;;;7395868;19;20619;-76
2022/05/12 05:26:10;;;;;;;2.80;2.38;;;;;14.80;94359.00;;;;7397140;19;20128;-74
2022/05/12 05:28:37;;;;;;;3.25;2.15;;;;;15.00;94358.00;;;;7396210;19;20150;-75
2022/05/12 05:31:06;;;;;;;2.90;2.17;;;;;15.10;94372.00;;;;7399185;19;20141;-78
2022/05/12 05:33:39;;;;;;;2.92;2.30;;;;;15.10;94376.00;;;;7397818;19;20231;-78
2022/05/12 05:36:07;;;;;;;4.63;2.28;;;;;14.80;94382.00;;;;7398332;19;20225;-75
2022/05/12 05:38:38;;;;;;;5.22;2.53;;;;;14.90;94387.00;;;;7398187;19;20137;-75
2022/05/12 05:41:14;;;;;;;3.30;2.30;;;;;15.00;94386.00;;;;7398890;19;20465;-74
2022/05/12 05:43:42;;;;;;;5.65;2.47;;;;;15.20;94377.00;;;;7397322;19;20170;-74
2022/05/12 05:46:09;;;;;;;2.35;2.15;;;;;15.50;94389.00;;;;7396581;19;20144;-76
2022/05/12 05:48:46;;;;;;;4.15;2.58;;;;;15.90;94388.00;;;;7398116;19;20632;-77
2022/05/12 05:54:14;;;;;;;4.13;1.98;;;;;16.50;94387.00;;;;7397749;19;20129;-78
2022/05/12 05:56:43;;;;;;;2.78;2.38;;;;;17.00;94381.00;;;;7397391;19;20567;-79
2022/05/12 05:59:11;;;;;;;5.35;2.25;;;;;17.00;94386.00;;;;7401030;19;20201;-75
2022/05/12 06:01:46;;;;;;;6.20;2.35;;;;;17.30;94389.00;;;;7396030;19;20161;-76
2022/05/12 06:04:27;;;;;;;3.53;2.20;;;;;17.50;94390.00;;;;7395550;19;20571;-77
2022/05/12 06:07:02;;;;;;;4.32;1.90;;;;;17.90;94391.00;;;;7399326;19;20125;-77
2022/05/12 06:09:29;;;;;;;4.25;2.17;;;;;17.80;94410.00;;;;7395576;19;20497;-78
2022/05/12 06:11:59;;;;;;;4.50;1.95;;;;;17.60;94411.00;;;;7391539;19;20137;-77
2022/05/12 06:14:42;;;;;;;2.67;1.83;;;;;16.90;94422.00;;;;7390183;19;20163;-75
2022/05/12 06:17:10;;;;;;;4.45;2.10;;;;;16.60;94429.00;;;;7388803;19;20490;-76
2022/05/12 06:19:50;;;;;;;4.43;2.28;;;;;16.60;94424.00;;;;7391255;19;20125;-78
2022/05/12 06:22:25;;;;;;;5.05;2.38;;;;;16.40;94429.00;;;;7392472;19;20460;-75
2022/05/12 06:24:52;;;;;;;2.70;1.80;;;;;16.40;94434.00;;;;7388926;19;20145;-77
2022/05/12 06:27:20;;;;;;;4.53;2.17;;;;;16.60;94436.00;;;;7386792;19;20140;-80
2022/05/12 06:29:55;;;;;;;4.72;2.20;;;;;16.40;94442.00;;;;7390129;19;20150;-75
2022/05/12 06:32:23;;;;;;;5.97;2.28;;;;;16.40;94445.00;;;;7398618;19;20129;-79
2022/05/12 06:34:50;;;;;;;2.70;2.20;;;;;16.00;94445.00;;;;7388912;19;20236;-75
2022/05/12 06:37:26;;;;;;;4.13;2.03;;;;;15.90;94449.00;;;;7390043;19;20152;-79
2022/05/12 06:39:53;;;;;;;4.57;2.10;;;;;15.70;94451.00;;;;7390334;19;20148;-80
2022/05/12 06:42:22;;;;;;;4.18;2.00;;;;;15.50;94458.00;;;;7389501;19;20177;-74
2022/05/12 06:44:56;;;;;;;3.00;1.98;;;;;15.50;94467.00;;;;7395442;19;20153;-78
2022/05/12 06:47:24;;;;;;;4.43;2.03;;;;;15.60;94456.00;;;;7396304;19;20610;-78
2022/05/12 06:49:52;;;;;;;6.20;2.25;;;;;15.90;94463.00;;;;7400127;19;20188;-78
2022/05/12 06:52:27;;;;;;;3.42;1.98;;;;;15.80;94468.00;;;;7396238;19;20132;-78
2022/05/12 06:54:55;;;;;;;5.28;2.20;;;;;15.70;94462.00;;;;7394335;19;20141;-79
2022/05/12 06:57:30;;;;;;;2.92;1.80;;;;;15.70;94470.00;;;;7393621;19;20165;-77
2022/05/12 07:00:06;;;;;;;2.88;2.22;;;;;16.00;94477.00;;;;7394776;19;20228;-77
2022/05/12 07:02:38;;;;;;;3.95;2.35;;;;;16.10;94478.00;;;;7395231;19;20478;-78
2022/05/12 07:05:08;;;;;;;4.03;2.33;;;;;16.30;94478.00;;;;7392020;19;20657;-77
2022/05/12 07:07:49;;;;;;;2.65;2.40;;;;;16.30;94481.00;;;;7394091;19;20128;-76
2022/05/12 07:10:20;;;;;;;4.85;2.25;;;;;16.10;94484.00;;;;7393809;19;20148;-75
2022/05/12 07:12:55;;;;;;;3.88;2.60;;;;;16.20;94482.00;;;;7396589;19;20133;-75
2022/05/12 07:15:27;;;;;;;9.43;2.35;;;;;16.40;94477.00;;;;7393631;19;20600;-74
2022/05/12 07:18:02;;;;;;;5.03;2.50;;;;;16.80;94479.00;;;;7393624;19;20132;-75
2022/05/12 07:26:40;;;;;;;4.28;2.10;;;;;16.80;94490.00;;;;7387564;19;20147;-76
2022/05/12 07:29:17;;;;;;;3.88;1.98;;;;;17.20;94479.00;;;;7387756;19;20147;-77
2022/05/12 07:31:47;;;;;;;4.00;1.90;;;;;17.50;94484.00;;;;7385434;19;20738;-76
2022/05/12 07:34:25;;;;;;;2.00;1.80;;;;;17.80;94481.00;;;;7388351;19;20137;-78
2022/05/12 07:36:54;;;;;;;3.50;2.13;;;;;17.60;94485.00;;;;7393278;19;20594;-77
2022/05/12 07:39:30;;;;;;;4.60;1.90;;;;;17.70;94478.00;;;;7392508;19;20209;-76
2022/05/12 07:42:01;;;;;;;3.97;1.98;;;;;18.00;94482.00;;;;7392318;19;20646;-74
2022/05/12 07:44:38;;;;;;;2.20;2.00;;;;;17.80;94487.00;;;;7390579;19;20554;-76
2022/05/12 07:47:09;;;;;;;2.65;2.10;;;;;17.70;94475.00;;;;7389178;19;20516;-78
2022/05/12 07:49:44;;;;;;;2.85;1.80;;;;;17.80;94481.00;;;;7389973;19;20144;-75
2022/05/12 07:52:14;;;;;;;4.88;2.08;;;;;18.20;94460.00;;;;7391403;19;20129;-75
2022/05/12 07:54:42;;;;;;;3.28;2.13;;;;;18.40;94489.00;;;;7391273;19;20581;-77
2022/05/12 07:57:21;;;;;;;2.38;1.73;;;;;18.90;94464.00;;;;7388599;19;20140;-79
2022/05/12 07:59:48;;;;;;;2.83;1.45;;;;;19.20;94465.00;;;;7392822;19;20627;-82
2022/05/12 08:02:16;;;;;;;2.97;1.77;;;;;19.40;94488.00;;;;7391697;19;20164;-80
2022/05/12 08:04:57;;;;;;;3.92;1.80;;;;;19.10;94500.00;;;;7390208;19;20175;-82
2022/05/12 08:07:32;;;;;;;3.30;1.80;;;;;18.80;94493.00;;;;7392661;19;20572;-79
2022/05/12 08:10:06;;;;;;;5.20;1.90;;;;;19.00;94496.00;;;;7393001;19;20141;-78
2022/05/12 08:12:35;;;;;;;3.65;1.83;;;;;18.80;94484.00;;;;7392958;19;20117;-82
2022/05/12 08:15:03;;;;;;;3.88;1.90;;;;;19.10;94495.00;;;;7391366;19;20212;-80
2022/05/12 08:17:38;;;;;;;4.55;1.80;;;;;19.90;94492.00;;;;7392310;19;20136;-81
2022/05/12 08:20:07;;;;;;;4.35;2.28;;;;;20.30;94489.00;;;;7391674;19;20213;-79
2022/05/12 08:22:35;;;;;;;6.80;1.80;;;;;20.50;94497.00;;;;7391650;19;20641;-82
2022/05/12 08:25:18;;;;;;;5.47;2.58;;;;;20.50;94480.00;;;;7392508;19;20166;-79
2022/05/12 08:27:47;;;;;;;6.30;2.33;;;;;20.40;94505.00;;;;7391148;19;20137;-80
2022/05/12 08:30:21;;;;;;;2.75;2.17;;;;;21.00;94491.00;;;;7392581;19;20148;-80
2022/05/12 08:32:50;;;;;;;2.90;2.22;;;;;21.30;94487.00;;;;7391070;19;20154;-79
2022/05/12 08:35:18;;;;;;;4.32;2.60;;;;;21.10;94517.00;;;;7390879;19;20239;-77
2022/05/12 08:37:53;;;;;;;3.53;2.53;;;;;20.60;94485.00;;;;7391688;19;20140;-74
2022/05/12 08:40:58;;;;;;;8.50;2.60;;;;;20.10;94504.00;;;;7391395;19;20169;-79
2022/05/12 08:43:52;;;;;;;4.13;2.80;;;;;19.50;94523.00;;;;7388563;19;20205;-79
2022/05/12 08:46:28;;;;;;;5.28;2.50;;;;;19.30;94519.00;;;;7391363;19;20133;-76
2022/05/12 08:49:19;;;;;;;4.72;2.53;;;;;19.80;94517.00;;;;7393394;19;20125;-76
2022/05/12 08:51:55;;;;;;;3.85;2.53;;;;;19.80;94515.00;;;;7391009;19;20163;-76
2022/05/12 08:54:29;;;;;;;4.57;2.45;;;;;19.70;94507.00;;;;7390586;19;20140;-78
2022/05/12 08:57:02;;;;;;;5.43;2.60;;;;;20.30;94513.00;;;;7388891;19;20141;-77
2022/05/12 08:59:39;;;;;;;3.25;2.70;;;;;21.00;94485.00;;;;7390225;19;20143;-78
2022/05/12 09:02:26;;;;;;;4.53;2.42;;;;;21.40;94495.00;;;;7391375;19;20136;-77
2022/05/12 09:05:11;;;;;;;3.90;2.75;;;;;21.30;94500.00;;;;7389842;19;20137;-78
2022/05/12 09:08:06;;;;;;;9.82;2.83;;;;;22.10;94501.00;;;;7390611;19;20166;-77
2022/05/12 09:10:55;;;;;;;4.50;2.95;;;;;21.70;94502.00;;;;7390385;19;20151;-75
2022/05/12 09:13:36;;;;;;;3.15;2.50;;;;;22.00;94496.00;;;;7392403;19;20192;-79
2022/05/12 09:16:20;;;;;;;5.97;3.10;;;;;22.10;94497.00;;;;7389252;19;20628;-77
2022/05/12 09:18:48;;;;;;;3.63;2.20;;;;;22.70;94491.00;;;;7389816;19;20145;-82
2022/05/12 09:21:43;;;;;;;5.72;2.70;;;;;22.90;94517.00;;;;7389818;19;20145;-78
2022/05/12 09:24:11;;;;;;;6.88;3.10;;;;;21.60;94501.00;;;;7390487;19;20164;-79
2022/05/12 09:26:46;;;;;;;3.17;2.58;;;;;21.20;94502.00;;;;7390708;19;20508;-83
2022/05/12 09:29:30;;;;;;;3.60;3.10;;;;;22.30;94503.00;;;;7389867;19;20134;-82
2022/05/12 09:32:04;;;;;;;5.28;2.60;;;;;22.30;94508.00;;;;7389435;19;20584;-79
2022/05/12 09:34:32;;;;;;;4.10;2.55;;;;;22.40;94500.00;;;;7387480;19;20172;-77
2022/05/12 09:37:21;;;;;;;4.93;2.72;;;;;23.10;94512.00;;;;7388908;19;20212;-79
2022/05/12 09:40:14;;;;;;;3.92;3.03;;;;;22.40;94513.00;;;;7389971;19;20160;-82
2022/05/12 09:42:45;;;;;;;9.73;3.53;;;;;22.70;94502.00;;;;7390208;19;20133;-83
2022/05/12 09:45:33;;;;;;;5.78;3.03;;;;;22.40;94493.00;;;;7389479;19;20155;-77
2022/05/12 09:48:12;;;;;;;4.15;3.22;;;;;22.60;94492.00;;;;7388617;19;20485;-79
2022/05/12 09:50:48;;;;;;;8.05;3.13;;;;;23.10;94488.00;;;;7388359;19;20493;-82
2022/05/12 09:53:30;;;;;;;7.53;3.20;;;;;23.70;94502.00;;;;7389084;19;20162;-82
2022/05/12 09:56:09;;;;;;;5.97;3.10;;;;;24.00;94471.00;;;;7392046;19;20145;-81
2022/05/12 09:58:44;;;;;;;6.30;2.50;;;;;23.40;94479.00;;;;7397275;19;20137;-73
2022/05/12 10:01:23;;;;;;;5.03;3.05;;;;;24.50;94470.00;;;;7398084;19;20442;-79
2022/05/12 10:07:53;;;;;;;4.22;2.83;;;;;22.60;94481.00;;;;7397228;19;20151;-77
2022/05/12 10:10:16;;;;;;;4.47;3.20;;;;;23.90;94482.00;;;;7397190;19;20514;-77
2022/05/12 10:13:15;;;;;;;5.65;3.15;;;;;24.30;94470.00;;;;7396493;19;20584;-77
2022/05/12 10:15:43;;;;;;;4.18;3.28;;;;;23.90;94461.00;;;;7396305;19;20212;-77
2022/05/12 10:18:28;;;;;;;4.32;3.20;;;;;23.80;94471.00;;;;7395980;19;20128;-77
2022/05/12 10:21:06;;;;;;;6.10;3.15;;;;;24.10;94466.00;;;;7395853;19;20635;-81
2022/05/12 10:24:02;;;;;;;4.72;3.10;;;;;23.30;94473.00;;;;7395625;19;20208;-74
2022/05/12 10:26:50;;;;;;;5.35;3.50;;;;;24.30;94470.00;;;;7395171;19;20658;-78
2022/05/12 10:29:24;;;;;;;7.05;3.88;;;;;24.50;94457.00;;;;7395255;19;20633;-81
2022/05/12 10:32:12;;;;;;;5.80;3.00;;;;;24.00;94459.00;;;;7398150;19;20121;-82
2022/05/12 10:35:03;;;;;;;4.63;2.90;;;;;25.40;94453.00;;;;7393991;19;20157;-83
2022/05/12 10:37:57;;;;;;;5.50;2.78;;;;;24.80;94452.00;;;;7395568;19;20594;-79
2022/05/12 10:40:50;;;;;;;8.07;2.72;;;;;24.40;94461.00;;;;7395942;19;20153;-77
2022/05/12 10:43:55;;;;;;;5.47;2.80;;;;;25.70;94452.00;;;;7395705;19;20161;-81
2022/05/12 10:46:58;;;;;;;5.28;3.03;;;;;25.90;94451.00;;;;7395494;19;20157;-76
2022/05/12 10:49:29;;;;;;;6.15;3.20;;;;;24.30;94458.00;;;;7392773;19;20128;-77
2022/05/12 10:52:12;;;;;;;4.75;3.60;;;;;23.40;94452.00;;;;7395495;19;20136;-76
2022/05/12 10:55:02;;;;;;;10.70;3.58;;;;;24.30;94461.00;;;;7394918;19;20129;-82
2022/05/12 10:57:58;;;;;;;7.80;4.30;;;;;24.70;94459.00;;;;7393188;19;20129;-83
2022/05/12 11:01:06;;;;;;;6.30;3.67;;;;;24.10;94446.00;;;;7395167;19;20141;-78
2022/05/12 11:04:31;;;;;;;5.03;3.40;;;;;25.00;94447.00;;;;7395031;19;20197;-78
2022/05/12 11:07:14;;;;;;;6.00;3.58;;;;;24.80;94442.00;;;;7393411;19;20141;-79
2022/05/12 11:10:04;;;;;;;4.45;3.40;;;;;24.70;94434.00;;;;7394326;19;20147;-80
2022/05/12 11:12:49;;;;;;;4.32;3.85;;;;;24.80;94433.00;;;;7394531;19;20614;-82
2022/05/12 11:15:26;;;;;;;3.70;3.35;;;;;25.70;94428.00;;;;7394713;19;20155;-81
2022/05/12 11:18:07;;;;;;;3.85;3.13;;;;;26.50;94429.00;;;;7392492;19;20145;-81
2022/05/12 11:20:55;;;;;;;3.75;3.13;;;;;26.00;94429.00;;;;7395628;19;20129;-76
2022/05/12 11:23:28;;;;;;;4.15;3.60;;;;;26.80;94423.00;;;;7393664;19;20149;-80
2022/05/12 11:26:15;;;;;;;6.32;3.45;;;;;27.00;94422.00;;;;7393322;19;20615;-81
2022/05/12 11:31:52;;;;;;;4.63;3.20;;;;;26.30;94434.00;;;;7393625;19;20148;-82
2022/05/12 11:34:23;;;;;;;5.63;3.10;;;;;26.10;94425.00;;;;7391776;19;20136;-85
2022/05/12 11:36:53;;;;;;;5.20;3.58;;;;;26.10;94423.00;;;;7393269;19;20133;-84
2022/05/12 11:39:43;;;;;;;6.20;3.40;;;;;25.30;94436.00;;;;7392379;19;20215;-75
2022/05/12 11:44:23;;;;;;;6.82;3.00;;;;;26.50;94421.00;;;;7391214;19;20160;-81
2022/05/12 11:45:36;;;;;;;5.72;2.92;;;;;26.70;94428.00;;;;7388202;19;20137;-81
2022/05/12 11:48:33;;;;;;;4.55;2.75;;;;;26.90;94425.00;;;;7387566;19;20239;-75
2022/05/12 11:51:38;;;;;;;5.25;3.10;;;;;27.30;94432.00;;;;7387915;19;20129;-82
2022/05/12 11:54:11;;;;;;;4.40;3.30;;;;;26.90;94415.00;;;;7387694;19;20204;-81
2022/05/12 11:57:00;;;;;;;3.55;3.22;;;;;26.80;94426.00;;;;7386523;19;20140;-79
2022/05/12 11:59:30;;;;;;;3.53;3.00;;;;;27.10;94409.00;;;;7388552;19;20121;-79
2022/05/12 12:02:26;;;;;;;4.93;3.10;;;;;27.10;94419.00;;;;7387240;19;20160;-79
2022/05/12 12:05:06;;;;;;;4.45;2.88;;;;;27.30;94427.00;;;;7386293;19;20628;-73
2022/05/12 12:08:01;;;;;;;5.72;2.78;;;;;26.80;94416.00;;;;7385969;19;20129;-76
2022/05/12 12:10:33;;;;;;;5.35;3.55;;;;;26.60;94417.00;;;;7386139;19;20135;-76
2022/05/12 12:13:14;;;;;;;3.28;2.97;;;;;27.20;94437.00;;;;7386451;19;20168;-78
2022/05/12 12:16:07;;;;;;;6.25;3.10;;;;;25.80;94421.00;;;;7385750;19;20606;-76
2022/05/12 12:18:42;;;;;;;4.95;2.88;;;;;27.10;94428.00;;;;7387018;19;20192;-78
2022/05/12 12:21:40;;;;;;;4.13;2.85;;;;;27.60;94423.00;;;;7386236;19;20137;-80
2022/05/12 12:24:18;;;;;;;4.55;2.80;;;;;26.20;94428.00;;;;7386108;19;20132;-77
2022/05/12 12:26:55;;;;;;;5.45;3.70;;;;;27.10;94419.00;;;;7387072;19;20125;-78
2022/05/12 12:29:45;;;;;;;3.58;2.80;;;;;25.90;94425.00;;;;7387300;19;20212;-77
2022/05/12 12:32:28;;;;;;;5.38;2.97;;;;;26.60;94436.00;;;;7388163;19;20627;-78
2022/05/12 12:35:28;;;;;;;3.55;3.10;;;;;26.00;94418.00;;;;7392842;19;20587;-78
2022/05/12 12:37:56;;;;;;;4.07;2.83;;;;;27.00;94413.00;;;;7389960;19;20122;-77
2022/05/12 12:40:33;;;;;;;3.40;2.58;;;;;27.10;94419.00;;;;7392576;19;20186;-78
2022/05/12 12:43:25;;;;;;;4.38;3.10;;;;;26.90;94425.00;;;;7390761;19;20137;-80
2022/05/12 12:46:09;;;;;;;3.28;2.70;;;;;26.70;94414.00;;;;7390832;19;20171;-76
2022/05/12 12:48:44;;;;;;;6.63;2.70;;;;;27.10;94418.00;;;;7390660;19;20150;-76
2022/05/12 12:51:33;;;;;;;6.47;3.00;;;;;26.20;94406.00;;;;7387934;19;20595;-79
2022/05/12 12:57:50;;;;;;;5.80;3.10;;;;;27.70;94414.00;;;;7390186;19;20140;-80
2022/05/12 13:00:44;;;;;;;4.03;3.05;;;;;27.10;94410.00;;;;7389263;19;20137;-78
2022/05/12 13:03:26;;;;;;;4.22;2.88;;;;;27.20;94406.00;;;;7391194;19;20601;-78
2022/05/12 13:06:15;;;;;;;4.20;3.20;;;;;26.40;94413.00;;;;7385285;19;20172;-80
2022/05/12 13:09:00;;;;;;;3.50;3.20;;;;;26.80;94424.00;;;;7386404;19;20631;-84
2022/05/12 13:11:28;;;;;;;5.18;3.25;;;;;26.00;94404.00;;;;7389677;19;20144;-81
2022/05/12 13:14:11;;;;;;;3.60;2.97;;;;;26.60;94403.00;;;;7390322;19;20588;-81
2022/05/12 13:16:49;;;;;;;6.88;3.60;;;;;25.50;94405.00;;;;7390842;19;20133;-79
2022/05/12 13:19:34;;;;;;;4.60;3.03;;;;;25.80;94406.00;;;;7390753;19;20166;-82
2022/05/12 13:22:01;;;;;;;4.18;3.00;;;;;25.40;94415.00;;;;7388420;19;20141;-78